Time;durP1;ratioP1;P1;durP2;ratioP2;P2;SDS_P1;SDS_P2;PMS_P1;PMS_P2;Temp;Humidity;BMP_temperature;BMP_pressure;BME280_temperature;BME280_humidity;BME280_pressure;Samples;Min_cycle;Max_cycle;Signal;HPM_P1;HPM_P2
2024/02/21 00:00:46;;;;;;;6.80;2.03;;;9.60;99.90;;;;;;5046481;28;20311;-72
2024/02/21 00:03:12;;;;;;;14.73;2.83;;;9.60;99.90;;;;;;5047378;28;20052;-71
2024/02/21 00:05:38;;;;;;;10.15;2.88;;;9.70;99.90;;;;;;5027878;28;20054;-71
2024/02/21 00:08:04;;;;;;;14.55;1.85;;;9.60;99.90;;;;;;5047094;28;20282;-72
2024/02/21 00:10:32;;;;;;;11.68;2.90;;;9.70;99.90;;;;;;5029192;28;20401;-71
2024/02/21 00:12:59;;;;;;;13.00;3.28;;;9.70;99.90;;;;;;5021369;28;20548;-71
2024/02/21 00:15:25;;;;;;;12.88;2.83;;;9.70;99.90;;;;;;5064323;28;20049;-71
2024/02/21 00:17:51;;;;;;;16.27;2.72;;;9.70;99.90;;;;;;5044658;28;20044;-71
2024/02/21 00:20:17;;;;;;;15.98;2.72;;;9.70;99.90;;;;;;5047338;28;20049;-71
2024/02/21 00:22:44;;;;;;;10.82;2.58;;;9.60;99.90;;;;;;5045134;28;20059;-72
2024/02/21 00:25:10;;;;;;;18.40;2.70;;;9.60;99.90;;;;;;5031351;28;20410;-72
2024/02/21 00:27:35;;;;;;;14.60;2.47;;;9.60;99.90;;;;;;5044735;28;20040;-73
2024/02/21 00:30:02;;;;;;;19.58;3.83;;;9.60;99.90;;;;;;5030320;28;20106;-73
2024/02/21 00:32:28;;;;;;;14.02;3.05;;;9.60;99.90;;;;;;5046312;28;20075;-73
2024/02/21 00:34:54;;;;;;;14.93;2.85;;;9.60;99.90;;;;;;5045134;28;20530;-73
2024/02/21 00:37:20;;;;;;;15.15;2.17;;;9.50;99.90;;;;;;5046611;28;20372;-73
2024/02/21 00:39:45;;;;;;;21.90;2.85;;;9.50;99.90;;;;;;5044479;28;20084;-73
2024/02/21 00:42:11;;;;;;;12.73;2.45;;;9.40;99.90;;;;;;5046958;28;20048;-73
2024/02/21 00:44:37;;;;;;;19.65;3.38;;;9.40;99.90;;;;;;5037594;28;20044;-73
2024/02/21 00:47:03;;;;;;;28.20;3.58;;;9.40;99.90;;;;;;5030219;28;20048;-73
2024/02/21 00:49:29;;;;;;;16.13;2.70;;;9.40;99.90;;;;;;5028015;28;20127;-73
2024/02/21 00:51:54;;;;;;;12.00;1.95;;;9.40;99.90;;;;;;5064466;28;20148;-73
2024/02/21 00:54:20;;;;;;;15.80;3.17;;;9.30;99.90;;;;;;5045689;28;20044;-73
2024/02/21 00:56:46;;;;;;;15.38;3.35;;;9.30;99.90;;;;;;5028387;28;20367;-73
2024/02/21 00:59:12;;;;;;;20.58;2.85;;;9.30;99.90;;;;;;5012844;28;20090;-72
2024/02/21 01:01:38;;;;;;;18.65;3.00;;;9.30;99.90;;;;;;5026354;28;20072;-73
2024/02/21 01:04:04;;;;;;;18.73;2.95;;;9.30;99.90;;;;;;5045568;28;20165;-73
2024/02/21 01:06:29;;;;;;;22.05;2.97;;;9.30;99.90;;;;;;5044948;28;20468;-73
2024/02/21 01:08:55;;;;;;;20.65;3.17;;;9.30;99.90;;;;;;5045641;28;20032;-74
2024/02/21 01:11:21;;;;;;;15.88;2.75;;;9.30;99.90;;;;;;5029280;28;20105;-74
2024/02/21 01:13:46;;;;;;;19.20;2.95;;;9.30;99.90;;;;;;5028039;28;20438;-74
2024/02/21 01:16:14;;;;;;;11.90;2.30;;;9.30;99.90;;;;;;5046603;28;20056;-73
2024/02/21 01:18:40;;;;;;;20.30;2.88;;;9.30;99.90;;;;;;5043529;28;20131;-73
2024/02/21 01:21:07;;;;;;;17.33;3.85;;;9.30;99.90;;;;;;5029510;28;20048;-74
2024/02/21 01:23:36;;;;;;;8.10;2.28;;;9.20;99.90;;;;;;5043720;28;20048;-73
2024/02/21 01:26:03;;;;;;;16.67;2.70;;;9.30;99.90;;;;;;5046213;28;20055;-73
2024/02/21 01:28:29;;;;;;;11.73;2.53;;;9.30;99.90;;;;;;5044299;28;20089;-73
2024/02/21 01:30:55;;;;;;;26.48;3.38;;;9.30;99.90;;;;;;5028808;28;20076;-73
2024/02/21 01:33:21;;;;;;;17.95;3.80;;;9.30;99.90;;;;;;5045780;28;20102;-73
2024/02/21 01:35:47;;;;;;;16.00;2.88;;;9.20;99.90;;;;;;5044304;28;20051;-73
2024/02/21 01:38:13;;;;;;;17.00;4.00;;;9.30;99.90;;;;;;5030062;28;20510;-74
2024/02/21 01:40:42;;;;;;;22.10;4.28;;;9.30;99.90;;;;;;5035036;28;20063;-73
2024/02/21 01:43:19;;;;;;;12.35;2.95;;;9.30;99.90;;;;;;5045120;28;20436;-73
2024/02/21 01:45:55;;;;;;;20.83;4.18;;;9.20;99.90;;;;;;5044646;28;20040;-73
2024/02/21 01:48:21;;;;;;;23.52;4.47;;;9.30;99.90;;;;;;5044629;28;20056;-73
2024/02/21 01:50:49;;;;;;;9.02;1.75;;;9.30;99.90;;;;;;5029461;28;20553;-74
2024/02/21 01:53:35;;;;;;;20.35;3.50;;;9.30;99.90;;;;;;5026848;28;20127;-74
2024/02/21 01:56:01;;;;;;;20.00;3.35;;;9.30;99.90;;;;;;5045505;28;20051;-74
2024/02/21 01:58:28;;;;;;;30.10;3.72;;;9.20;99.90;;;;;;5009954;28;20080;-74
2024/02/21 02:00:56;;;;;;;13.23;2.63;;;9.20;99.90;;;;;;5028164;28;20044;-74
2024/02/21 02:03:22;;;;;;;5.43;1.60;;;9.20;99.90;;;;;;5044623;28;20058;-75
2024/02/21 02:05:49;;;;;;;23.30;3.28;;;9.20;99.90;;;;;;5044114;28;20490;-74
2024/02/21 02:08:22;;;;;;;21.08;3.40;;;9.20;99.90;;;;;;5026755;28;20110;-75
2024/02/21 02:10:48;;;;;;;14.60;2.83;;;9.10;99.90;;;;;;5041287;28;20049;-75
2024/02/21 02:13:14;;;;;;;13.07;2.83;;;9.10;99.90;;;;;;5028109;28;20126;-75
2024/02/21 02:15:41;;;;;;;15.55;3.10;;;9.10;99.90;;;;;;5010620;28;20105;-75
2024/02/21 02:18:06;;;;;;;12.60;2.03;;;9.10;99.90;;;;;;5026360;28;20410;-76
2024/02/21 02:20:32;;;;;;;16.35;3.17;;;9.10;99.90;;;;;;5040425;28;20058;-75
2024/02/21 02:23:00;;;;;;;7.90;1.85;;;9.10;99.90;;;;;;5029663;28;20040;-75
2024/02/21 02:25:26;;;;;;;10.10;2.03;;;9.00;99.90;;;;;;5039770;28;20421;-75
2024/02/21 02:27:53;;;;;;;9.75;2.30;;;9.00;99.90;;;;;;5043252;28;20101;-76
2024/02/21 02:30:19;;;;;;;6.28;1.92;;;9.00;99.90;;;;;;5044134;28;20572;-75
2024/02/21 02:32:47;;;;;;;14.00;2.90;;;9.00;99.90;;;;;;5027008;28;20040;-75
2024/02/21 02:35:14;;;;;;;11.05;2.00;;;9.00;99.90;;;;;;5043958;28;20051;-75
2024/02/21 02:37:39;;;;;;;7.22;2.05;;;9.00;99.90;;;;;;5044468;28;20494;-75
2024/02/21 02:40:08;;;;;;;5.15;1.42;;;9.00;99.90;;;;;;5042704;28;20052;-75
2024/02/21 02:42:34;;;;;;;4.93;1.83;;;8.90;99.90;;;;;;5025362;28;20052;-75
2024/02/21 02:45:00;;;;;;;11.38;2.10;;;9.00;99.90;;;;;;5022446;28;20130;-75
2024/02/21 02:47:25;;;;;;;1.45;1.05;;;9.00;99.90;;;;;;5041497;28;20043;-75
2024/02/21 02:49:51;;;;;;;7.93;2.30;;;9.00;99.90;;;;;;5022769;28;20390;-75
2024/02/21 02:52:18;;;;;;;5.32;2.08;;;9.00;99.90;;;;;;5040383;28;20045;-74
2024/02/21 02:54:44;;;;;;;5.00;1.80;;;9.00;99.90;;;;;;5038282;28;20063;-75
2024/02/21 02:57:10;;;;;;;8.05;2.40;;;9.00;99.90;;;;;;5024374;28;20041;-75
2024/02/21 02:59:36;;;;;;;5.97;2.30;;;8.90;99.90;;;;;;5024037;28;20475;-75
2024/02/21 03:02:02;;;;;;;6.82;1.40;;;9.00;99.90;;;;;;5038661;28;20075;-75
2024/02/21 03:04:27;;;;;;;5.55;1.67;;;9.00;99.90;;;;;;5024290;28;20061;-75
2024/02/21 03:06:53;;;;;;;8.40;1.63;;;9.00;99.90;;;;;;5022862;28;20184;-74
2024/02/21 03:09:19;;;;;;;9.73;2.47;;;8.90;99.90;;;;;;5040844;28;20037;-74
2024/02/21 03:11:45;;;;;;;7.13;2.00;;;9.00;99.90;;;;;;5022843;28;20462;-75
2024/02/21 03:14:11;;;;;;;8.25;1.98;;;8.90;99.90;;;;;;5039575;28;20462;-75
2024/02/21 03:16:37;;;;;;;11.05;2.35;;;9.00;99.90;;;;;;5024247;28;20036;-74
2024/02/21 03:19:03;;;;;;;12.02;2.50;;;9.00;99.90;;;;;;5023226;28;20404;-74
2024/02/21 03:21:29;;;;;;;10.27;2.33;;;9.00;99.90;;;;;;5021616;28;20033;-74
2024/02/21 03:23:54;;;;;;;3.83;1.45;;;9.00;99.90;;;;;;5022534;28;20048;-74
2024/02/21 03:26:20;;;;;;;13.85;2.80;;;9.00;99.90;;;;;;5023648;28;20041;-74
2024/02/21 03:28:46;;;;;;;13.55;2.70;;;9.00;99.90;;;;;;5005742;28;20070;-75
2024/02/21 03:31:13;;;;;;;16.42;2.42;;;9.00;99.90;;;;;;5040802;28;20053;-74
2024/02/21 03:33:42;;;;;;;6.55;1.92;;;8.90;99.90;;;;;;5038458;28;20120;-74
2024/02/21 03:36:13;;;;;;;22.83;3.63;;;8.90;99.90;;;;;;5007355;28;20417;-74
2024/02/21 03:38:39;;;;;;;5.30;1.65;;;9.00;99.90;;;;;;4991129;28;20130;-74
2024/02/21 03:41:06;;;;;;;20.23;3.47;;;8.90;99.90;;;;;;4989425;28;20089;-74
2024/02/21 03:43:31;;;;;;;27.23;2.92;;;8.90;99.90;;;;;;5025134;28;20055;-73
2024/02/21 03:45:57;;;;;;;23.63;3.38;;;9.00;99.90;;;;;;4991822;28;20049;-74
2024/02/21 03:48:23;;;;;;;8.20;2.20;;;8.90;99.90;;;;;;5010462;28;20518;-74
2024/02/21 03:50:49;;;;;;;16.77;2.85;;;8.90;99.90;;;;;;5007829;28;20045;-73
2024/02/21 03:53:14;;;;;;;25.63;3.97;;;8.90;99.90;;;;;;5011010;28;20095;-73
2024/02/21 03:55:40;;;;;;;11.00;1.75;;;8.90;99.90;;;;;;5010022;28;20227;-73
2024/02/21 03:58:06;;;;;;;18.58;3.28;;;9.00;99.90;;;;;;4993529;28;20049;-73
2024/02/21 04:00:37;;;;;;;19.25;2.80;;;8.90;99.90;;;;;;5026955;28;20182;-73
2024/02/21 04:03:03;;;;;;;19.17;2.90;;;8.90;99.90;;;;;;5010189;28;20387;-73
2024/02/21 04:05:29;;;;;;;25.20;3.53;;;9.00;99.90;;;;;;5010588;28;20454;-73
2024/02/21 04:07:55;;;;;;;22.55;3.38;;;8.90;99.90;;;;;;5026045;28;20041;-73
2024/02/21 04:10:20;;;;;;;21.42;3.72;;;8.90;99.90;;;;;;5026394;28;20100;-73
2024/02/21 04:12:46;;;;;;;23.85;3.28;;;8.90;99.90;;;;;;5026279;28;20099;-73
2024/02/21 04:15:12;;;;;;;23.17;3.15;;;8.90;99.90;;;;;;5025457;28;20132;-73
2024/02/21 04:17:37;;;;;;;20.63;3.33;;;8.90;99.90;;;;;;4994782;28;20051;-73
2024/02/21 04:20:05;;;;;;;16.05;2.60;;;9.00;99.90;;;;;;5008647;28;20130;-74
2024/02/21 04:22:34;;;;;;;20.90;3.28;;;8.90;99.90;;;;;;5027121;28;20056;-73
2024/02/21 04:25:00;;;;;;;10.18;2.70;;;8.90;99.90;;;;;;5009164;28;20554;-72
2024/02/21 04:27:26;;;;;;;21.08;2.92;;;8.90;99.90;;;;;;5010382;28;20106;-73
2024/02/21 04:29:54;;;;;;;22.35;3.03;;;8.90;99.90;;;;;;5025315;28;20054;-73
2024/02/21 04:32:20;;;;;;;14.80;2.92;;;8.90;99.90;;;;;;5026280;28;20403;-72
2024/02/21 04:34:46;;;;;;;27.10;4.18;;;8.90;99.90;;;;;;5025885;28;20056;-72
2024/02/21 04:37:11;;;;;;;28.42;3.38;;;8.90;99.90;;;;;;4993052;28;20073;-73
2024/02/21 04:39:37;;;;;;;21.48;3.78;;;8.90;99.90;;;;;;5026232;28;20367;-72
2024/02/21 04:42:03;;;;;;;33.00;4.38;;;8.90;99.90;;;;;;5008715;28;20456;-73
2024/02/21 04:44:29;;;;;;;22.30;3.65;;;8.90;99.90;;;;;;5009880;28;20834;-72
2024/02/21 04:46:54;;;;;;;31.13;4.82;;;8.90;99.90;;;;;;5008306;28;20407;-73
2024/02/21 04:49:20;;;;;;;15.75;3.45;;;9.00;99.90;;;;;;5010346;28;20179;-72
2024/02/21 04:51:46;;;;;;;22.33;3.67;;;8.90;99.90;;;;;;5025600;28;20509;-72
2024/02/21 04:54:11;;;;;;;18.73;3.00;;;8.90;99.90;;;;;;5009071;28;20041;-72
2024/02/21 04:56:37;;;;;;;28.55;4.13;;;8.90;99.90;;;;;;5026227;28;20045;-72
2024/02/21 04:59:03;;;;;;;22.83;4.10;;;8.90;99.90;;;;;;5024401;28;20061;-72
2024/02/21 05:01:29;;;;;;;11.00;3.17;;;8.90;99.90;;;;;;4990434;28;20065;-73
2024/02/21 05:03:55;;;;;;;22.92;3.25;;;8.90;99.90;;;;;;5002335;28;20480;-72
2024/02/21 05:06:21;;;;;;;30.00;4.18;;;8.90;99.90;;;;;;5024901;28;20037;-73
2024/02/21 05:08:47;;;;;;;6.82;1.58;;;8.90;99.90;;;;;;5008421;28;20810;-73
2024/02/21 05:11:13;;;;;;;45.53;4.88;;;8.90;99.90;;;;;;5026291;28;20052;-72
2024/02/21 05:13:39;;;;;;;25.25;4.18;;;8.90;99.90;;;;;;5025307;28;20049;-72
2024/02/21 05:16:06;;;;;;;37.05;4.45;;;8.90;99.90;;;;;;5024362;28;20132;-72
2024/02/21 05:18:32;;;;;;;33.97;4.70;;;8.90;99.90;;;;;;5025434;28;20491;-72
2024/02/21 05:20:59;;;;;;;29.38;3.90;;;8.90;99.90;;;;;;5020341;28;20393;-72
2024/02/21 05:23:24;;;;;;;19.58;3.63;;;8.90;99.90;;;;;;5009041;28;20045;-72
2024/02/21 05:25:51;;;;;;;33.75;3.80;;;8.80;99.90;;;;;;5024582;28;20032;-72
2024/02/21 05:28:16;;;;;;;36.15;5.43;;;8.90;99.90;;;;;;5007806;28;20085;-72
2024/02/21 05:30:43;;;;;;;28.83;4.05;;;8.90;99.90;;;;;;5024690;28;20513;-72
2024/02/21 05:33:08;;;;;;;32.80;4.55;;;8.80;99.90;;;;;;5025212;28;20049;-72
2024/02/21 05:35:35;;;;;;;48.28;5.80;;;8.90;99.90;;;;;;5025500;28;20052;-72
2024/02/21 05:38:05;;;;;;;29.70;4.40;;;8.80;99.90;;;;;;5023971;28;20040;-72
2024/02/21 05:40:31;;;;;;;32.90;4.20;;;8.90;99.90;;;;;;5008741;28;20337;-72
2024/02/21 05:42:57;;;;;;;38.30;4.95;;;8.90;99.90;;;;;;4988041;28;20400;-71
2024/02/21 05:45:23;;;;;;;29.77;4.15;;;8.80;99.90;;;;;;5005974;28;20056;-71
2024/02/21 05:47:49;;;;;;;23.25;4.43;;;8.80;99.90;;;;;;5024615;28;20045;-72
2024/02/21 05:50:15;;;;;;;44.33;7.78;;;8.80;99.90;;;;;;5024673;28;20049;-72
2024/02/21 05:52:41;;;;;;;37.67;6.28;;;8.90;99.90;;;;;;5008448;28;20459;-72
2024/02/21 05:55:08;;;;;;;28.85;4.22;;;8.90;99.90;;;;;;5023322;28;20048;-72
2024/02/21 05:57:34;;;;;;;41.00;4.35;;;8.90;99.90;;;;;;5008911;28;20502;-72
2024/02/21 06:00:02;;;;;;;23.13;3.33;;;8.80;99.90;;;;;;5005851;28;20057;-72
2024/02/21 06:02:28;;;;;;;30.17;4.22;;;8.80;99.90;;;;;;5021304;28;20057;-72
2024/02/21 06:04:54;;;;;;;33.45;5.40;;;8.80;99.90;;;;;;5007694;28;20071;-72
2024/02/21 06:07:20;;;;;;;24.95;4.72;;;8.90;99.90;;;;;;5008502;28;20140;-72
2024/02/21 06:09:45;;;;;;;39.75;5.90;;;8.90;99.90;;;;;;5020203;28;20041;-71
2024/02/21 06:12:11;;;;;;;34.47;5.60;;;8.90;99.90;;;;;;5006883;28;20063;-71
2024/02/21 06:14:37;;;;;;;41.08;4.78;;;8.90;99.90;;;;;;5007544;28;20092;-72
2024/02/21 06:17:03;;;;;;;37.05;4.30;;;8.80;99.90;;;;;;5007384;28;20040;-72
2024/02/21 06:19:28;;;;;;;35.78;4.70;;;8.80;99.90;;;;;;5008193;28;20589;-71
2024/02/21 06:21:54;;;;;;;40.85;5.25;;;8.80;99.90;;;;;;5023989;28;20053;-71
2024/02/21 06:24:20;;;;;;;36.15;4.32;;;8.90;99.90;;;;;;5004956;28;20463;-72
2024/02/21 06:26:45;;;;;;;31.15;5.80;;;8.80;99.90;;;;;;4987467;28;20471;-72
2024/02/21 06:29:13;;;;;;;30.77;4.53;;;8.80;99.90;;;;;;5016378;28;20045;-72
2024/02/21 06:31:39;;;;;;;36.03;5.95;;;8.80;99.90;;;;;;5008934;28;20095;-72
2024/02/21 06:34:05;;;;;;;30.13;4.85;;;8.80;99.90;;;;;;5014180;28;20101;-72
2024/02/21 06:36:31;;;;;;;24.10;4.18;;;8.90;99.90;;;;;;4991926;28;20620;-72
2024/02/21 06:38:58;;;;;;;41.15;5.80;;;8.80;99.90;;;;;;5022637;28;20151;-72
2024/02/21 06:41:24;;;;;;;37.67;4.45;;;8.80;99.90;;;;;;5008129;28;20517;-72
2024/02/21 06:43:50;;;;;;;32.90;4.75;;;8.80;99.90;;;;;;5023616;28;20150;-72
2024/02/21 06:46:28;;;;;;;41.03;5.43;;;8.90;99.90;;;;;;5022455;28;20084;-72
2024/02/21 06:48:56;;;;;;;23.13;4.60;;;8.80;99.90;;;;;;5009612;28;20101;-72
2024/02/21 06:51:22;;;;;;;31.50;4.90;;;8.80;99.90;;;;;;5016568;28;20072;-72
2024/02/21 06:53:48;;;;;;;44.10;5.63;;;8.80;99.90;;;;;;5024170;28;20395;-71
2024/02/21 06:56:14;;;;;;;27.50;4.93;;;8.80;99.90;;;;;;5009076;28;20211;-72
2024/02/21 06:58:39;;;;;;;48.08;7.10;;;8.80;99.90;;;;;;5024201;28;20387;-72
2024/02/21 07:01:05;;;;;;;33.85;5.15;;;8.90;99.90;;;;;;5010177;28;20036;-71
2024/02/21 07:03:31;;;;;;;27.80;5.20;;;8.80;99.90;;;;;;5001955;28;20052;-71
2024/02/21 07:05:57;;;;;;;42.92;5.93;;;8.80;99.90;;;;;;5003401;28;20479;-72
2024/02/21 07:08:23;;;;;;;44.58;6.28;;;8.80;99.90;;;;;;5023236;28;20060;-72
2024/02/21 07:10:48;;;;;;;34.80;5.78;;;8.90;99.90;;;;;;5022588;28;20131;-72
2024/02/21 07:13:15;;;;;;;26.80;4.93;;;8.80;99.90;;;;;;5021931;28;20534;-72
2024/02/21 07:15:41;;;;;;;41.88;6.55;;;8.80;99.90;;;;;;5006793;28;20140;-72
2024/02/21 07:18:07;;;;;;;39.33;6.32;;;8.80;99.90;;;;;;5022484;28;20364;-71
2024/02/21 07:20:33;;;;;;;40.38;6.43;;;8.90;99.90;;;;;;4992997;28;20037;-71
2024/02/21 07:22:59;;;;;;;16.17;3.38;;;8.90;99.90;;;;;;4990129;28;20041;-72
2024/02/21 07:25:25;;;;;;;37.42;6.40;;;8.80;99.90;;;;;;5023510;28;20033;-71
2024/02/21 07:27:51;;;;;;;39.25;6.10;;;8.80;99.90;;;;;;5027482;28;20506;-71
2024/02/21 07:30:17;;;;;;;30.40;5.15;;;8.90;99.90;;;;;;5025227;28;20353;-72
2024/02/21 07:32:43;;;;;;;37.38;7.03;;;8.80;99.90;;;;;;5026035;28;20156;-72
2024/02/21 07:35:11;;;;;;;35.45;5.72;;;8.90;99.90;;;;;;5008917;28;20055;-72
2024/02/21 07:37:38;;;;;;;27.77;5.57;;;8.90;99.90;;;;;;5006709;28;20076;-72
2024/02/21 07:40:12;;;;;;;36.88;6.22;;;8.90;99.90;;;;;;5032726;28;20520;-71
2024/02/21 07:42:38;;;;;;;36.33;5.90;;;8.90;99.90;;;;;;5025821;28;20057;-71
2024/02/21 07:45:06;;;;;;;28.92;5.70;;;8.90;99.90;;;;;;5027407;28;20056;-72
2024/02/21 07:47:31;;;;;;;35.35;5.82;;;8.80;99.90;;;;;;5026305;28;20128;-72
2024/02/21 07:49:57;;;;;;;33.53;6.20;;;8.80;99.90;;;;;;5010417;28;20473;-72
2024/02/21 07:52:24;;;;;;;28.10;7.55;;;8.80;99.90;;;;;;5027226;28;20060;-72
2024/02/21 07:54:50;;;;;;;40.75;8.23;;;8.90;99.90;;;;;;4992983;28;20139;-72
2024/02/21 07:57:16;;;;;;;39.15;8.18;;;8.90;99.90;;;;;;5013787;28;20084;-72
2024/02/21 07:59:42;;;;;;;44.70;9.00;;;8.90;99.90;;;;;;5029665;28;20084;-72
2024/02/21 08:02:08;;;;;;;44.20;9.05;;;8.90;99.90;;;;;;5014570;28;20109;-73
2024/02/21 08:04:34;;;;;;;34.72;7.95;;;8.90;99.90;;;;;;5062857;28;20052;-73
2024/02/21 08:07:02;;;;;;;41.33;8.93;;;8.90;99.90;;;;;;5046590;28;20080;-73
2024/02/21 08:09:28;;;;;;;49.60;9.23;;;9.00;99.90;;;;;;5045118;28;20044;-73
2024/02/21 08:11:54;;;;;;;59.88;11.55;;;8.90;99.90;;;;;;5029536;28;20049;-73
2024/02/21 08:14:21;;;;;;;48.95;10.63;;;8.90;99.90;;;;;;5045363;28;20056;-72
2024/02/21 08:16:47;;;;;;;39.28;11.10;;;8.90;99.90;;;;;;5046195;28;20098;-72
2024/02/21 08:19:12;;;;;;;50.42;9.27;;;8.90;99.90;;;;;;5046749;28;20048;-73
2024/02/21 08:21:38;;;;;;;55.40;9.13;;;9.00;99.90;;;;;;5012698;28;20067;-73
2024/02/21 08:24:04;;;;;;;35.67;6.88;;;8.90;99.90;;;;;;5046698;28;20048;-73
2024/02/21 08:26:31;;;;;;;36.75;5.95;;;9.00;99.90;;;;;;5028613;28;20049;-73
2024/02/21 08:29:00;;;;;;;48.03;6.30;;;9.00;99.90;;;;;;5054697;28;20478;-72
2024/02/21 08:31:34;;;;;;;23.98;5.43;;;9.00;99.90;;;;;;5043979;28;20052;-73
2024/02/21 08:34:03;;;;;;;28.92;5.25;;;9.10;99.90;;;;;;5042349;28;20044;-73
2024/02/21 08:36:30;;;;;;;30.60;6.07;;;9.10;99.90;;;;;;5028970;28;20053;-73
2024/02/21 08:38:56;;;;;;;17.17;3.85;;;9.00;99.90;;;;;;5044336;28;20080;-72
2024/02/21 08:41:26;;;;;;;37.28;5.32;;;9.00;99.90;;;;;;5028036;28;20129;-73
2024/02/21 08:43:53;;;;;;;33.20;5.68;;;9.10;99.90;;;;;;5028755;28;20051;-73
2024/02/21 08:46:24;;;;;;;17.48;4.30;;;9.10;99.90;;;;;;5028331;28;20048;-74
2024/02/21 08:48:51;;;;;;;24.15;4.78;;;9.00;99.90;;;;;;5026626;28;20041;-73
2024/02/21 08:51:17;;;;;;;26.58;4.70;;;9.10;99.90;;;;;;5028838;28;20464;-73
2024/02/21 08:53:47;;;;;;;14.20;3.42;;;9.10;99.90;;;;;;5046070;28;20041;-73
2024/02/21 08:56:13;;;;;;;24.85;5.18;;;9.00;99.90;;;;;;5044426;28;20525;-73
2024/02/21 08:58:40;;;;;;;23.27;4.70;;;9.10;99.90;;;;;;5049815;28;20040;-73
2024/02/21 09:01:10;;;;;;;30.35;5.40;;;9.00;99.90;;;;;;5039944;28;20056;-72
2024/02/21 09:03:39;;;;;;;25.15;4.28;;;9.00;99.90;;;;;;5030277;28;20084;-73
2024/02/21 09:06:05;;;;;;;27.33;4.05;;;9.00;99.90;;;;;;5027343;28;20147;-73
2024/02/21 09:08:32;;;;;;;21.33;5.03;;;9.00;99.90;;;;;;5012707;28;20035;-74
2024/02/21 09:10:59;;;;;;;23.20;5.20;;;9.00;99.90;;;;;;5027770;28;20077;-73
2024/02/21 09:13:25;;;;;;;18.88;3.67;;;9.00;99.90;;;;;;5044569;28;20060;-73
2024/02/21 09:15:50;;;;;;;25.77;5.00;;;8.90;99.90;;;;;;5027585;28;20323;-73
2024/02/21 09:18:19;;;;;;;25.67;5.30;;;8.90;99.90;;;;;;5027263;28;20135;-73
2024/02/21 09:20:45;;;;;;;28.98;6.38;;;8.90;99.90;;;;;;5044834;28;20449;-73
2024/02/21 09:23:11;;;;;;;26.02;6.40;;;9.00;99.90;;;;;;5039826;28;20884;-73
2024/02/21 09:25:37;;;;;;;26.60;7.03;;;9.00;99.90;;;;;;5038166;28;20049;-73
2024/02/21 09:28:03;;;;;;;39.30;8.50;;;9.00;99.90;;;;;;5027560;28;20053;-73
2024/02/21 09:30:30;;;;;;;23.30;7.00;;;9.00;99.90;;;;;;5044235;28;20051;-73
2024/02/21 09:32:58;;;;;;;27.70;7.80;;;9.00;99.90;;;;;;5028710;28;20341;-73
2024/02/21 09:35:26;;;;;;;34.83;9.88;;;9.00;99.90;;;;;;5026710;28;20044;-73
2024/02/21 09:37:52;;;;;;;22.75;7.45;;;9.00;99.90;;;;;;5028307;28;20044;-73
2024/02/21 09:40:18;;;;;;;26.80;7.80;;;9.00;99.90;;;;;;5038539;28;20537;-73
2024/02/21 09:42:46;;;;;;;32.30;9.52;;;8.90;99.90;;;;;;5028783;28;20044;-73
2024/02/21 09:45:15;;;;;;;25.42;7.03;;;8.90;99.90;;;;;;5026420;28;20048;-73
2024/02/21 09:48:19;;;;;;;30.73;9.55;;;9.00;99.90;;;;;;5019080;28;20054;-72
2024/02/21 09:50:47;;;;;;;28.20;9.18;;;9.00;99.90;;;;;;5042722;28;20057;-72
2024/02/21 09:53:14;;;;;;;13.52;5.90;;;9.00;99.90;;;;;;5026209;28;20111;-72
2024/02/21 09:55:41;;;;;;;20.73;8.07;;;9.00;99.90;;;;;;5044990;28;20044;-72
2024/02/21 09:58:08;;;;;;;31.45;10.02;;;9.10;99.90;;;;;;5039625;28;20530;-72
2024/02/21 10:00:35;;;;;;;22.92;6.35;;;9.00;99.90;;;;;;5043174;28;20394;-72
2024/02/21 10:03:01;;;;;;;24.00;9.63;;;9.00;99.90;;;;;;5027086;28;20039;-73
2024/02/21 10:05:27;;;;;;;15.52;6.43;;;9.10;99.90;;;;;;5009830;28;20049;-72
2024/02/21 10:07:54;;;;;;;33.13;10.32;;;9.10;99.90;;;;;;5044596;28;20045;-72
2024/02/21 10:10:21;;;;;;;25.58;10.57;;;9.10;99.90;;;;;;5042729;28;20503;-72
2024/02/21 10:12:51;;;;;;;9.90;5.28;;;9.20;99.90;;;;;;5046193;28;20071;-71
2024/02/21 10:15:24;;;;;;;18.50;8.70;;;9.10;99.90;;;;;;5022931;28;20044;-71
2024/02/21 10:17:58;;;;;;;19.30;7.88;;;9.10;99.90;;;;;;5044132;28;20048;-71
2024/02/21 10:20:25;;;;;;;24.88;9.35;;;9.10;99.90;;;;;;5044422;28;20088;-71
2024/02/21 10:23:07;;;;;;;23.08;12.15;;;9.00;99.90;;;;;;5039652;28;20960;-70
2024/02/21 10:25:35;;;;;;;9.68;5.13;;;9.00;99.90;;;;;;5043355;28;20362;-71
2024/02/21 10:28:04;;;;;;;28.98;13.02;;;9.00;99.90;;;;;;5041731;28;20044;-71
2024/02/21 10:30:30;;;;;;;24.63;11.60;;;9.00;99.90;;;;;;5027571;28;20041;-71
2024/02/21 10:32:58;;;;;;;30.05;12.35;;;9.00;99.90;;;;;;5042834;28;20383;-71
2024/02/21 10:35:31;;;;;;;17.30;9.77;;;9.10;99.90;;;;;;5043091;28;20048;-71
2024/02/21 10:37:58;;;;;;;18.98;6.45;;;9.10;99.90;;;;;;5040742;28;20044;-71
2024/02/21 10:40:31;;;;;;;27.95;11.13;;;9.10;99.90;;;;;;5038849;28;20127;-71
2024/02/21 10:42:59;;;;;;;22.35;10.68;;;9.10;99.90;;;;;;5041152;28;20513;-71
2024/02/21 10:45:33;;;;;;;21.10;9.85;;;9.20;99.90;;;;;;5038527;28;20066;-71
2024/02/21 10:48:12;;;;;;;26.17;11.75;;;9.20;99.90;;;;;;5040628;28;20410;-72
2024/02/21 10:51:00;;;;;;;21.25;10.30;;;9.20;99.90;;;;;;5059039;28;20521;-70
2024/02/21 10:53:41;;;;;;;21.35;10.15;;;9.20;99.90;;;;;;5006823;28;20146;-71
2024/02/21 10:56:25;;;;;;;36.90;12.68;;;9.30;99.90;;;;;;5056550;28;20070;-71
2024/02/21 10:58:50;;;;;;;24.50;10.30;;;9.30;99.90;;;;;;5038336;28;20048;-71
2024/02/21 11:01:18;;;;;;;14.82;6.60;;;9.40;99.90;;;;;;5022951;28;20056;-72
2024/02/21 11:03:45;;;;;;;15.80;8.02;;;9.50;99.90;;;;;;5042221;28;20052;-72
2024/02/21 11:06:13;;;;;;;29.35;12.57;;;9.50;99.90;;;;;;5040443;28;20503;-72
2024/02/21 11:08:39;;;;;;;26.25;14.00;;;9.50;99.90;;;;;;5026074;28;20093;-72
2024/02/21 11:11:06;;;;;;;27.98;11.43;;;9.50;99.90;;;;;;5024510;28;20044;-72
2024/02/21 11:13:35;;;;;;;23.88;12.52;;;9.60;99.90;;;;;;5051677;28;20927;-71
2024/02/21 11:16:11;;;;;;;12.55;6.45;;;9.60;99.90;;;;;;5042067;28;20044;-72
2024/02/21 11:18:38;;;;;;;29.00;12.77;;;9.70;99.90;;;;;;5040113;28;20102;-72
2024/02/21 11:21:07;;;;;;;32.67;13.25;;;9.80;99.90;;;;;;5042247;28;20041;-71
2024/02/21 11:23:33;;;;;;;24.40;11.30;;;9.80;99.90;;;;;;5039103;28;20080;-71
2024/02/21 11:26:09;;;;;;;16.92;8.90;;;9.80;99.90;;;;;;5009019;28;20128;-72
2024/02/21 11:28:38;;;;;;;16.58;9.52;;;9.80;99.90;;;;;;5038573;28;20101;-72
2024/02/21 11:31:09;;;;;;;22.65;12.48;;;9.80;99.90;;;;;;5041382;28;20327;-72
2024/02/21 11:33:35;;;;;;;17.55;9.65;;;9.80;99.90;;;;;;5041316;28;20049;-72
2024/02/21 11:36:04;;;;;;;29.45;12.75;;;9.80;99.90;;;;;;5024435;28;20049;-71
2024/02/21 11:38:30;;;;;;;26.48;12.70;;;9.90;99.90;;;;;;5042378;28;20130;-72
2024/02/21 11:40:56;;;;;;;20.90;9.13;;;10.00;99.90;;;;;;5014708;28;20092;-71
2024/02/21 11:43:21;;;;;;;28.38;12.68;;;10.10;99.90;;;;;;4991220;28;20637;-71
2024/02/21 11:45:47;;;;;;;24.27;10.93;;;10.10;99.90;;;;;;4998933;28;20061;-72
2024/02/21 11:48:14;;;;;;;16.73;8.75;;;10.10;99.90;;;;;;4986575;28;20510;-72
2024/02/21 11:50:40;;;;;;;19.10;9.18;;;10.10;99.90;;;;;;5018091;28;20477;-71
2024/02/21 11:53:06;;;;;;;20.02;11.05;;;10.00;99.90;;;;;;5016805;28;20073;-71
2024/02/21 11:55:31;;;;;;;22.70;9.90;;;10.10;99.90;;;;;;5019070;28;20166;-71
2024/02/21 11:57:57;;;;;;;6.28;4.75;;;10.10;99.90;;;;;;4985499;28;20125;-72
2024/02/21 12:00:26;;;;;;;9.02;5.60;;;10.10;99.90;;;;;;5018726;28;20049;-72
2024/02/21 12:02:52;;;;;;;12.95;6.45;;;10.00;99.90;;;;;;5017307;28;20044;-72
2024/02/21 12:05:21;;;;;;;28.40;12.82;;;10.10;99.90;;;;;;4983470;28;20695;-71
2024/02/21 12:07:47;;;;;;;25.15;11.25;;;10.10;99.90;;;;;;5018389;28;20081;-71
2024/02/21 12:10:13;;;;;;;26.65;9.50;;;10.20;99.90;;;;;;5012453;28;20136;-71
2024/02/21 12:12:40;;;;;;;22.60;10.23;;;10.20;99.90;;;;;;5021714;28;20099;-71
2024/02/21 12:15:06;;;;;;;15.90;9.10;;;10.20;99.90;;;;;;5020152;28;20085;-71
2024/02/21 12:17:40;;;;;;;18.88;7.97;;;10.20;99.90;;;;;;5014875;28;20049;-72
2024/02/21 12:20:11;;;;;;;16.50;7.15;;;10.20;99.90;;;;;;4986777;28;20073;-71
2024/02/21 12:22:37;;;;;;;15.90;7.70;;;10.20;99.90;;;;;;4989610;28;20419;-71
2024/02/21 12:25:07;;;;;;;21.02;9.02;;;10.20;99.90;;;;;;5004747;28;20061;-72
2024/02/21 12:27:33;;;;;;;23.35;7.47;;;10.20;99.90;;;;;;5005623;28;20037;-71
2024/02/21 12:29:59;;;;;;;21.55;7.55;;;10.20;99.90;;;;;;5005606;28;20084;-71
2024/02/21 12:32:25;;;;;;;17.27;7.53;;;10.20;99.90;;;;;;5003018;28;20057;-71
2024/02/21 12:34:50;;;;;;;9.65;4.35;;;10.10;99.90;;;;;;4988691;28;20060;-71
2024/02/21 12:37:16;;;;;;;11.07;6.43;;;10.00;99.90;;;;;;5001943;28;20069;-71
2024/02/21 12:39:42;;;;;;;20.67;6.68;;;10.00;99.90;;;;;;5005325;28;20052;-71
2024/02/21 12:42:09;;;;;;;21.23;7.20;;;10.00;99.90;;;;;;4998095;28;20049;-71
2024/02/21 12:44:35;;;;;;;11.55;6.97;;;9.90;99.90;;;;;;5008407;28;20130;-71